Time;durP1;ratioP1;P1;durP2;ratioP2;P2;SDS_P1;SDS_P2;PMS_P1;PMS_P2;Temp;Humidity;BMP_temperature;BMP_pressure;BME280_temperature;BME280_humidity;BME280_pressure;Samples;Min_cycle;Max_cycle;Signal;HPM_P1;HPM_P2
2023/05/30 00:01:39;;;;;;;8.52;4.50;;;;;;;;;;5064294;28;20095;-76
2023/05/30 00:04:05;;;;;;;11.50;4.95;;;;;;;;;;5061026;28;20021;-75
2023/05/30 00:06:32;;;;;;;9.68;4.13;;;;;;;;;;5066535;28;20127;-75
2023/05/30 00:09:00;;;;;;;11.98;5.20;;;;;;;;;;5068562;28;20028;-74
2023/05/30 00:11:28;;;;;;;10.98;4.90;;;;;;;;;;5070947;28;20047;-74
2023/05/30 00:13:55;;;;;;;9.98;4.50;;;;;;;;;;5072397;28;20013;-74
2023/05/30 00:16:22;;;;;;;10.75;4.65;;;;;;;;;;5073956;28;20034;-74
2023/05/30 00:18:48;;;;;;;12.57;5.10;;;;;;;;;;5062740;28;20100;-74
2023/05/30 00:21:17;;;;;;;13.00;5.05;;;;;;;;;;5059210;28;20025;-74
2023/05/30 00:23:45;;;;;;;10.48;4.95;;;;;;;;;;5069836;28;20024;-74
2023/05/30 00:26:11;;;;;;;12.43;4.82;;;;;;;;;;5056198;28;20438;-74
2023/05/30 00:28:37;;;;;;;16.52;6.40;;;;;;;;;;5061457;28;20413;-74
2023/05/30 00:31:04;;;;;;;8.93;5.00;;;;;;;;;;5062085;28;20098;-74
2023/05/30 00:33:30;;;;;;;10.85;4.03;;;;;;;;;;5064253;28;20025;-74
2023/05/30 00:35:56;;;;;;;11.65;4.75;;;;;;;;;;5061635;28;20338;-73
2023/05/30 00:38:23;;;;;;;10.73;4.28;;;;;;;;;;5055395;28;20191;-74
2023/05/30 00:40:49;;;;;;;13.82;4.38;;;;;;;;;;5059260;28;20028;-75
2023/05/30 00:43:18;;;;;;;11.30;4.05;;;;;;;;;;5065376;28;20486;-74
2023/05/30 00:45:44;;;;;;;13.10;3.92;;;;;;;;;;5055010;28;20470;-74
2023/05/30 00:48:10;;;;;;;12.93;3.97;;;;;;;;;;5059348;28;20414;-75
2023/05/30 00:50:37;;;;;;;11.52;4.18;;;;;;;;;;5067071;28;20390;-74
2023/05/30 00:53:03;;;;;;;11.25;4.65;;;;;;;;;;5058610;28;20457;-74
2023/05/30 00:55:30;;;;;;;8.15;4.22;;;;;;;;;;5057061;28;20018;-75
2023/05/30 00:57:56;;;;;;;7.25;4.70;;;;;;;;;;5068468;28;20028;-75
2023/05/30 01:00:24;;;;;;;12.75;4.40;;;;;;;;;;5060524;28;20109;-75
2023/05/30 01:02:51;;;;;;;10.55;4.28;;;;;;;;;;5054733;28;20033;-74
2023/05/30 01:05:17;;;;;;;12.30;4.82;;;;;;;;;;5062243;28;20036;-75
2023/05/30 01:07:44;;;;;;;9.75;4.43;;;;;;;;;;5055229;28;20153;-74
2023/05/30 01:10:16;;;;;;;12.95;4.43;;;;;;;;;;5060549;28;20033;-75
2023/05/30 01:13:03;;;;;;;11.93;4.97;;;;;;;;;;5073069;28;20061;-74
2023/05/30 01:15:41;;;;;;;11.25;4.13;;;;;;;;;;5049013;28;20104;-75
2023/05/30 01:18:11;;;;;;;14.90;6.40;;;;;;;;;;5069069;28;20491;-74
2023/05/30 01:20:40;;;;;;;12.82;4.13;;;;;;;;;;5065371;28;20025;-74
2023/05/30 01:23:36;;;;;;;10.77;5.68;;;;;;;;;;5059248;28;20036;-75
2023/05/30 01:26:07;;;;;;;9.52;4.22;;;;;;;;;;5062110;28;20496;-75
2023/05/30 01:28:36;;;;;;;7.28;3.70;;;;;;;;;;5053152;28;20020;-74
2023/05/30 01:31:03;;;;;;;12.43;4.63;;;;;;;;;;5075777;28;20048;-75
2023/05/30 01:33:29;;;;;;;9.52;3.78;;;;;;;;;;5061355;28;20036;-74
2023/05/30 01:35:56;;;;;;;10.50;4.78;;;;;;;;;;5067413;28;20374;-75
2023/05/30 01:38:22;;;;;;;10.63;5.07;;;;;;;;;;5066211;28;20049;-74
2023/05/30 01:40:55;;;;;;;13.40;4.35;;;;;;;;;;5058516;28;20025;-75
2023/05/30 01:43:31;;;;;;;7.13;3.97;;;;;;;;;;5055082;28;20032;-74
2023/05/30 01:45:56;;;;;;;;;;;;;;;;;;5061075;28;20533;-74
2023/05/30 01:48:31;;;;;;;11.18;4.30;;;;;;;;;;5063892;28;19916;-74
2023/05/30 01:50:59;;;;;;;10.90;4.20;;;;;;;;;;5069159;28;20343;-76
2023/05/30 01:53:36;;;;;;;10.60;4.18;;;;;;;;;;5063894;28;20035;-74
2023/05/30 01:56:03;;;;;;;9.20;4.70;;;;;;;;;;5062805;28;20082;-75
2023/05/30 01:58:31;;;;;;;7.80;3.63;;;;;;;;;;5057603;28;20443;-75
2023/05/30 02:00:59;;;;;;;12.55;5.07;;;;;;;;;;5065873;28;20078;-75
2023/05/30 02:03:25;;;;;;;7.85;4.72;;;;;;;;;;5064008;28;20056;-75
2023/05/30 02:05:51;;;;;;;11.25;3.72;;;;;;;;;;5060018;28;20031;-75
2023/05/30 02:08:17;;;;;;;9.23;5.05;;;;;;;;;;5065658;28;20129;-75
2023/05/30 02:10:43;;;;;;;10.95;4.43;;;;;;;;;;5057916;28;20478;-74
2023/05/30 02:13:10;;;;;;;12.57;4.45;;;;;;;;;;5061136;28;20087;-74
2023/05/30 02:15:36;;;;;;;7.85;4.13;;;;;;;;;;5056501;28;20031;-75
2023/05/30 02:18:02;;;;;;;8.55;3.88;;;;;;;;;;5067321;28;20028;-75
2023/05/30 02:20:28;;;;;;;10.60;4.15;;;;;;;;;;5062589;28;20019;-74
2023/05/30 02:22:54;;;;;;;10.10;3.90;;;;;;;;;;5080089;28;20538;-75
2023/05/30 02:25:20;;;;;;;10.75;4.50;;;;;;;;;;5064118;28;20028;-75
2023/05/30 02:27:50;;;;;;;16.90;4.18;;;;;;;;;;5055143;28;20029;-75
2023/05/30 02:30:17;;;;;;;12.20;5.30;;;;;;;;;;5052228;28;20079;-74
2023/05/30 02:32:43;;;;;;;10.60;3.50;;;;;;;;;;5059037;28;20035;-74
2023/05/30 02:35:10;;;;;;;10.40;4.32;;;;;;;;;;5063122;28;20378;-74
2023/05/30 02:37:36;;;;;;;9.85;3.83;;;;;;;;;;5067395;28;20029;-74
2023/05/30 02:40:03;;;;;;;12.88;4.15;;;;;;;;;;5066610;28;20426;-75
2023/05/30 02:42:30;;;;;;;13.10;4.53;;;;;;;;;;5060652;28;20031;-74
2023/05/30 02:44:56;;;;;;;11.38;4.15;;;;;;;;;;5054437;28;20028;-74
2023/05/30 02:47:22;;;;;;;13.90;4.28;;;;;;;;;;5060348;28;20077;-76
2023/05/30 02:49:48;;;;;;;8.18;3.90;;;;;;;;;;5060675;28;20029;-74
2023/05/30 02:52:14;;;;;;;13.77;4.20;;;;;;;;;;5055173;28;20047;-74
2023/05/30 02:54:40;;;;;;;7.82;3.70;;;;;;;;;;5060787;28;20017;-74
2023/05/30 02:57:07;;;;;;;9.20;3.85;;;;;;;;;;5065740;28;20308;-74
2023/05/30 02:59:33;;;;;;;13.15;4.30;;;;;;;;;;5068440;28;20032;-75
2023/05/30 03:01:59;;;;;;;7.45;3.90;;;;;;;;;;5059075;28;20035;-75
2023/05/30 03:04:25;;;;;;;9.50;4.10;;;;;;;;;;5044703;28;20036;-74
2023/05/30 03:06:51;;;;;;;11.60;4.40;;;;;;;;;;5057190;28;20029;-74
2023/05/30 03:09:17;;;;;;;13.23;4.35;;;;;;;;;;5071630;28;20121;-74
2023/05/30 03:11:43;;;;;;;15.10;4.88;;;;;;;;;;5057934;28;20610;-74
2023/05/30 03:14:10;;;;;;;8.45;4.53;;;;;;;;;;5063310;28;20028;-74
2023/05/30 03:16:36;;;;;;;10.50;4.30;;;;;;;;;;5063992;28;20024;-74
2023/05/30 03:19:02;;;;;;;12.77;4.07;;;;;;;;;;5050206;28;20033;-75
2023/05/30 03:21:28;;;;;;;12.55;4.32;;;;;;;;;;5052311;28;20146;-75
2023/05/30 03:23:54;;;;;;;12.57;3.90;;;;;;;;;;5072688;28;20111;-74
2023/05/30 03:26:20;;;;;;;8.45;4.53;;;;;;;;;;5061326;28;20020;-75
2023/05/30 03:28:46;;;;;;;14.57;4.30;;;;;;;;;;5049501;28;20049;-74
2023/05/30 03:31:12;;;;;;;13.73;4.50;;;;;;;;;;5048663;28;20123;-74
2023/05/30 03:33:39;;;;;;;7.50;4.30;;;;;;;;;;5066462;28;20375;-74
2023/05/30 03:36:06;;;;;;;13.88;5.45;;;;;;;;;;5057428;28;20029;-75
2023/05/30 03:38:32;;;;;;;10.15;4.78;;;;;;;;;;5053175;28;20056;-74
2023/05/30 03:40:59;;;;;;;5.93;3.80;;;;;;;;;;5054215;28;20027;-74
2023/05/30 03:43:25;;;;;;;12.73;4.50;;;;;;;;;;5055458;28;20036;-74
2023/05/30 03:45:51;;;;;;;13.35;4.28;;;;;;;;;;5058792;28;20037;-74
2023/05/30 03:48:17;;;;;;;8.52;4.25;;;;;;;;;;5064498;28;20137;-74
2023/05/30 03:50:43;;;;;;;6.25;4.28;;;;;;;;;;5055132;28;20040;-74
2023/05/30 03:53:09;;;;;;;11.45;5.18;;;;;;;;;;5053344;28;20040;-74
2023/05/30 03:55:35;;;;;;;6.97;4.43;;;;;;;;;;5066483;28;20025;-74
2023/05/30 03:58:02;;;;;;;10.32;4.70;;;;;;;;;;5062028;28;20029;-75
2023/05/30 04:00:28;;;;;;;11.95;4.60;;;;;;;;;;5066516;28;20474;-75
2023/05/30 04:02:54;;;;;;;9.90;4.88;;;;;;;;;;5069091;28;20089;-75
2023/05/30 04:05:21;;;;;;;12.55;4.68;;;;;;;;;;5055070;28;20052;-74
2023/05/30 04:07:47;;;;;;;9.50;4.68;;;;;;;;;;5062734;28;20067;-75
2023/05/30 04:10:13;;;;;;;9.52;4.85;;;;;;;;;;5065339;28;20644;-74
2023/05/30 04:12:40;;;;;;;9.02;4.22;;;;;;;;;;5066467;28;20105;-75
2023/05/30 04:15:06;;;;;;;9.25;4.13;;;;;;;;;;5069627;28;20024;-76
2023/05/30 04:17:32;;;;;;;11.95;3.95;;;;;;;;;;5050232;28;20064;-75
2023/05/30 04:19:59;;;;;;;8.77;5.20;;;;;;;;;;5063963;28;20020;-75
2023/05/30 04:22:25;;;;;;;8.00;4.63;;;;;;;;;;5063036;28;20035;-73
2023/05/30 04:24:51;;;;;;;10.30;4.00;;;;;;;;;;5068534;28;20032;-75
2023/05/30 04:27:17;;;;;;;9.95;4.60;;;;;;;;;;5060734;28;20051;-74
2023/05/30 04:29:43;;;;;;;11.82;4.45;;;;;;;;;;5058002;28;20076;-74
2023/05/30 04:32:09;;;;;;;11.15;4.60;;;;;;;;;;5066844;28;20504;-74
2023/05/30 04:34:37;;;;;;;9.73;3.83;;;;;;;;;;5058669;28;20029;-74
2023/05/30 04:37:04;;;;;;;8.05;4.47;;;;;;;;;;5072473;28;20021;-74
2023/05/30 04:39:30;;;;;;;10.45;4.78;;;;;;;;;;5070855;28;20017;-75
2023/05/30 04:41:57;;;;;;;9.15;4.65;;;;;;;;;;5056453;28;20051;-75
2023/05/30 04:44:23;;;;;;;15.32;4.68;;;;;;;;;;5059451;28;20381;-75
2023/05/30 04:46:49;;;;;;;10.20;4.75;;;;;;;;;;5060257;28;20035;-74
2023/05/30 04:49:16;;;;;;;11.95;4.90;;;;;;;;;;5064929;28;20813;-75
2023/05/30 04:51:42;;;;;;;10.10;4.03;;;;;;;;;;5054285;28;20475;-75
2023/05/30 04:54:08;;;;;;;9.60;4.82;;;;;;;;;;5077135;28;20498;-74
2023/05/30 04:56:34;;;;;;;7.90;5.00;;;;;;;;;;5062061;28;20028;-74
2023/05/30 04:59:01;;;;;;;9.95;4.28;;;;;;;;;;5068678;28;21016;-74
2023/05/30 05:01:28;;;;;;;12.05;4.80;;;;;;;;;;5065459;28;20020;-75
2023/05/30 05:03:54;;;;;;;11.50;4.20;;;;;;;;;;5061448;28;20341;-75
2023/05/30 05:06:20;;;;;;;17.70;4.97;;;;;;;;;;5062841;28;20028;-75
2023/05/30 05:08:46;;;;;;;8.90;4.97;;;;;;;;;;5057513;28;20514;-75
2023/05/30 05:11:14;;;;;;;11.02;4.57;;;;;;;;;;5058876;28;20124;-74
2023/05/30 05:13:41;;;;;;;8.05;4.70;;;;;;;;;;5055807;28;20028;-74
2023/05/30 05:16:07;;;;;;;12.05;5.07;;;;;;;;;;5062723;28;20048;-75
2023/05/30 05:18:33;;;;;;;11.02;4.32;;;;;;;;;;5061612;28;20037;-74
2023/05/30 05:20:59;;;;;;;13.95;5.60;;;;;;;;;;5059479;28;20021;-75
2023/05/30 05:23:27;;;;;;;13.05;5.07;;;;;;;;;;5057406;28;20079;-75
2023/05/30 05:25:53;;;;;;;9.48;4.80;;;;;;;;;;5061084;28;20478;-75
2023/05/30 05:28:20;;;;;;;10.00;4.22;;;;;;;;;;5070899;28;20055;-75
2023/05/30 05:30:48;;;;;;;11.20;4.82;;;;;;;;;;5055835;28;20044;-75
2023/05/30 05:33:15;;;;;;;8.65;4.55;;;;;;;;;;5062644;28;20596;-75
2023/05/30 05:35:41;;;;;;;16.85;4.93;;;;;;;;;;5057247;28;20375;-75
2023/05/30 05:38:07;;;;;;;9.32;4.00;;;;;;;;;;5052770;28;20029;-75
2023/05/30 05:40:33;;;;;;;14.40;4.55;;;;;;;;;;5058471;28;20044;-75
2023/05/30 05:43:00;;;;;;;9.57;4.07;;;;;;;;;;5061708;28;20028;-75
2023/05/30 05:45:26;;;;;;;6.68;4.10;;;;;;;;;;5061016;28;20039;-74
2023/05/30 05:47:52;;;;;;;10.80;4.40;;;;;;;;;;5057144;28;20306;-74
2023/05/30 05:50:18;;;;;;;7.78;5.32;;;;;;;;;;5060777;28;20032;-75
2023/05/30 05:52:44;;;;;;;11.13;6.28;;;;;;;;;;5053411;28;20070;-75
2023/05/30 05:55:10;;;;;;;9.32;4.25;;;;;;;;;;5051490;28;20490;-75
2023/05/30 05:57:36;;;;;;;9.52;4.13;;;;;;;;;;5062158;28;20032;-75
2023/05/30 06:00:05;;;;;;;6.45;4.03;;;;;;;;;;5064358;28;20131;-75
2023/05/30 06:02:32;;;;;;;8.73;3.90;;;;;;;;;;5057183;28;20116;-75
2023/05/30 06:04:58;;;;;;;12.98;4.80;;;;;;;;;;5059141;28;20081;-75
2023/05/30 06:07:24;;;;;;;10.73;4.70;;;;;;;;;;5059779;28;20040;-75
2023/05/30 06:09:50;;;;;;;9.68;4.07;;;;;;;;;;5058806;28;20070;-75
2023/05/30 06:12:16;;;;;;;12.55;4.43;;;;;;;;;;5056595;28;20516;-75
2023/05/30 06:14:42;;;;;;;8.95;4.05;;;;;;;;;;5057096;28;20032;-74
2023/05/30 06:17:08;;;;;;;12.48;4.50;;;;;;;;;;5065892;28;20032;-75
2023/05/30 06:19:35;;;;;;;12.65;5.32;;;;;;;;;;5059191;28;20060;-74
2023/05/30 06:22:01;;;;;;;12.73;4.45;;;;;;;;;;5062093;28;20115;-75
2023/05/30 06:24:27;;;;;;;8.57;4.88;;;;;;;;;;5063984;28;20513;-75
2023/05/30 06:26:53;;;;;;;11.50;5.35;;;;;;;;;;5053469;28;20029;-74
2023/05/30 06:29:19;;;;;;;9.95;5.47;;;;;;;;;;5052968;28;20037;-74
2023/05/30 06:31:45;;;;;;;9.30;4.60;;;;;;;;;;5060183;28;20033;-75
2023/05/30 06:34:13;;;;;;;17.17;5.55;;;;;;;;;;5051665;28;20053;-75
2023/05/30 06:36:39;;;;;;;12.18;4.32;;;;;;;;;;5057068;28;20383;-75
2023/05/30 06:39:05;;;;;;;14.98;5.50;;;;;;;;;;5055391;28;20032;-75
2023/05/30 06:41:34;;;;;;;11.52;4.40;;;;;;;;;;5057255;28;20056;-75
2023/05/30 06:44:00;;;;;;;14.30;5.05;;;;;;;;;;5054398;28;20029;-75
2023/05/30 06:46:26;;;;;;;7.97;4.43;;;;;;;;;;5048121;28;20029;-76
2023/05/30 06:48:52;;;;;;;15.25;6.13;;;;;;;;;;5060893;28;20063;-75
2023/05/30 06:51:19;;;;;;;16.33;4.75;;;;;;;;;;5058536;28;20033;-74
2023/05/30 06:53:45;;;;;;;16.10;5.50;;;;;;;;;;5050915;28;20032;-76
2023/05/30 06:56:11;;;;;;;11.65;4.40;;;;;;;;;;5056529;28;20087;-75
2023/05/30 06:58:37;;;;;;;12.63;5.20;;;;;;;;;;5063613;28;20199;-75
2023/05/30 07:01:03;;;;;;;11.88;4.43;;;;;;;;;;5061128;28;20102;-76
2023/05/30 07:03:29;;;;;;;8.82;4.45;;;;;;;;;;5061707;28;20791;-75
2023/05/30 07:05:55;;;;;;;8.27;4.13;;;;;;;;;;5053385;28;20038;-74
2023/05/30 07:08:21;;;;;;;8.48;4.68;;;;;;;;;;5059165;28;20082;-76
2023/05/30 07:10:47;;;;;;;11.65;4.82;;;;;;;;;;5054354;28;20426;-75
2023/05/30 07:13:14;;;;;;;16.95;4.82;;;;;;;;;;5053297;28;20078;-75
2023/05/30 07:15:40;;;;;;;11.07;4.85;;;;;;;;;;5056299;28;20029;-75
2023/05/30 07:18:06;;;;;;;10.52;4.22;;;;;;;;;;5053608;28;20025;-75
2023/05/30 07:20:32;;;;;;;11.15;4.75;;;;;;;;;;5055915;28;20032;-75
2023/05/30 07:22:58;;;;;;;15.10;4.93;;;;;;;;;;5062134;28;20065;-76
2023/05/30 07:25:24;;;;;;;10.45;4.07;;;;;;;;;;5055622;28;20239;-75
2023/05/30 07:27:50;;;;;;;11.77;4.45;;;;;;;;;;5061196;28;20108;-74
2023/05/30 07:30:17;;;;;;;9.23;4.57;;;;;;;;;;5054185;28;20103;-75
2023/05/30 07:32:43;;;;;;;10.30;4.47;;;;;;;;;;5063736;28;20037;-75
2023/05/30 07:35:09;;;;;;;11.30;4.63;;;;;;;;;;5060190;28;20933;-76
2023/05/30 07:37:36;;;;;;;7.93;4.18;;;;;;;;;;5069124;28;20042;-77
2023/05/30 07:40:07;;;;;;;10.32;4.95;;;;;;;;;;5069680;28;20051;-76
2023/05/30 07:42:33;;;;;;;10.60;4.07;;;;;;;;;;5071925;28;20090;-76
2023/05/30 07:44:59;;;;;;;12.02;4.63;;;;;;;;;;5071240;28;20067;-76
2023/05/30 07:47:25;;;;;;;9.90;4.10;;;;;;;;;;5056489;28;20140;-76
2023/05/30 07:49:51;;;;;;;7.93;4.05;;;;;;;;;;5054473;28;20025;-76
2023/05/30 07:52:20;;;;;;;8.88;3.70;;;;;;;;;;5062526;28;20048;-77
2023/05/30 07:54:48;;;;;;;14.10;4.55;;;;;;;;;;5060465;28;20608;-77
2023/05/30 07:57:14;;;;;;;6.22;3.47;;;;;;;;;;5061121;28;20013;-77
2023/05/30 07:59:43;;;;;;;8.43;3.72;;;;;;;;;;5076185;28;20363;-77
2023/05/30 08:02:09;;;;;;;9.65;3.30;;;;;;;;;;5055466;28;20147;-76
2023/05/30 08:04:36;;;;;;;8.48;3.38;;;;;;;;;;5060666;28;20032;-77
2023/05/30 08:07:02;;;;;;;6.03;3.30;;;;;;;;;;5062277;28;20067;-77
2023/05/30 08:09:29;;;;;;;8.15;3.60;;;;;;;;;;5060267;28;20047;-76
2023/05/30 08:11:55;;;;;;;5.35;3.00;;;;;;;;;;5055269;28;20024;-76
2023/05/30 08:14:21;;;;;;;7.68;3.65;;;;;;;;;;5072544;28;20028;-76
2023/05/30 08:16:47;;;;;;;6.80;3.35;;;;;;;;;;5050444;28;20057;-76
2023/05/30 08:19:14;;;;;;;9.93;2.85;;;;;;;;;;5062637;28;20021;-76
2023/05/30 08:21:40;;;;;;;8.27;2.97;;;;;;;;;;5058177;28;20012;-77
2023/05/30 08:24:07;;;;;;;8.05;3.22;;;;;;;;;;5058044;28;20449;-77
2023/05/30 08:26:34;;;;;;;7.47;3.10;;;;;;;;;;5062544;28;20032;-76
2023/05/30 08:29:02;;;;;;;10.02;3.97;;;;;;;;;;5064012;28;20029;-76
2023/05/30 08:31:29;;;;;;;9.98;3.50;;;;;;;;;;5062799;28;20029;-76
2023/05/30 08:33:55;;;;;;;9.23;3.17;;;;;;;;;;5062008;28;20137;-76
2023/05/30 08:36:22;;;;;;;8.25;2.90;;;;;;;;;;5065704;28;20013;-76
2023/05/30 08:38:53;;;;;;;5.45;2.90;;;;;;;;;;5065682;28;20028;-76
2023/05/30 08:41:20;;;;;;;7.88;3.08;;;;;;;;;;5067638;28;20025;-77
2023/05/30 08:43:47;;;;;;;9.90;3.15;;;;;;;;;;5058530;28;20029;-77
2023/05/30 08:46:13;;;;;;;7.80;2.90;;;;;;;;;;5063898;28;20041;-77
2023/05/30 08:48:41;;;;;;;6.15;3.92;;;;;;;;;;5068864;28;20421;-76
2023/05/30 08:51:08;;;;;;;4.63;3.10;;;;;;;;;;5070023;28;20035;-77
2023/05/30 08:53:38;;;;;;;7.45;3.42;;;;;;;;;;5062388;28;20059;-77
2023/05/30 08:56:15;;;;;;;7.15;2.80;;;;;;;;;;5062998;28;20028;-77
2023/05/30 08:58:44;;;;;;;7.30;3.35;;;;;;;;;;5058880;28;20044;-77
2023/05/30 09:01:10;;;;;;;8.93;3.53;;;;;;;;;;5061337;28;20029;-76
2023/05/30 09:03:38;;;;;;;6.63;2.80;;;;;;;;;;5067880;28;20115;-76
2023/05/30 09:06:07;;;;;;;6.45;2.90;;;;;;;;;;5056215;28;20497;-76
2023/05/30 09:08:33;;;;;;;6.53;2.88;;;;;;;;;;5055282;28;20579;-76
2023/05/30 09:11:02;;;;;;;7.70;2.85;;;;;;;;;;5063148;28;20028;-77
2023/05/30 09:13:28;;;;;;;7.55;3.03;;;;;;;;;;5062832;28;20036;-76
2023/05/30 09:15:54;;;;;;;7.28;3.50;;;;;;;;;;5054012;28;20433;-77
2023/05/30 09:18:21;;;;;;;9.48;4.05;;;;;;;;;;5062522;28;20051;-77
2023/05/30 09:20:47;;;;;;;9.02;3.17;;;;;;;;;;5068150;28;20544;-76
2023/05/30 09:23:14;;;;;;;8.82;3.42;;;;;;;;;;5061086;28;20029;-77
2023/05/30 09:25:42;;;;;;;6.38;3.30;;;;;;;;;;5076871;28;20497;-77
2023/05/30 09:28:09;;;;;;;7.55;4.15;;;;;;;;;;5057920;28;20020;-77
2023/05/30 09:30:35;;;;;;;6.97;3.47;;;;;;;;;;5073741;28;20044;-77
2023/05/30 09:33:04;;;;;;;8.90;3.15;;;;;;;;;;5063036;28;20111;-78
2023/05/30 09:35:30;;;;;;;7.95;2.97;;;;;;;;;;5069442;28;20020;-77
2023/05/30 09:37:57;;;;;;;7.38;2.92;;;;;;;;;;5067663;28;20096;-76
2023/05/30 09:40:24;;;;;;;5.53;3.30;;;;;;;;;;5066463;28;20151;-77
2023/05/30 09:42:51;;;;;;;7.45;3.60;;;;;;;;;;5059067;28;20025;-77
2023/05/30 09:45:21;;;;;;;7.72;3.58;;;;;;;;;;5069199;28;20073;-77
2023/05/30 09:47:48;;;;;;;8.07;3.03;;;;;;;;;;5065946;28;20095;-77
2023/05/30 09:50:15;;;;;;;7.45;3.13;;;;;;;;;;5055017;28;20505;-77
2023/05/30 09:52:42;;;;;;;4.68;2.70;;;;;;;;;;5058676;28;20089;-76
2023/05/30 09:55:09;;;;;;;6.45;3.75;;;;;;;;;;5070915;28;20027;-77
2023/05/30 09:57:40;;;;;;;6.20;3.53;;;;;;;;;;5067610;28;20048;-77
2023/05/30 10:00:13;;;;;;;9.82;3.42;;;;;;;;;;5062588;28;20024;-77
2023/05/30 10:02:40;;;;;;;8.70;3.00;;;;;;;;;;5066570;28;20044;-77
2023/05/30 10:05:19;;;;;;;7.72;3.65;;;;;;;;;;5069885;28;20127;-76
2023/05/30 10:07:47;;;;;;;11.50;2.95;;;;;;;;;;5060174;28;20028;-77
2023/05/30 10:10:16;;;;;;;11.50;3.75;;;;;;;;;;5059349;28;20040;-77
2023/05/30 10:12:43;;;;;;;6.60;2.75;;;;;;;;;;5059273;28;20028;-77
2023/05/30 10:15:11;;;;;;;8.93;3.28;;;;;;;;;;5052229;28;20112;-77
2023/05/30 10:17:39;;;;;;;7.60;3.08;;;;;;;;;;5063964;28;20091;-77
2023/05/30 10:20:08;;;;;;;11.80;3.63;;;;;;;;;;5062630;28;20040;-77
2023/05/30 10:22:40;;;;;;;10.00;5.15;;;;;;;;;;5061840;28;20016;-77
2023/05/30 10:25:08;;;;;;;6.68;3.58;;;;;;;;;;5062680;28;20025;-77
2023/05/30 10:27:38;;;;;;;15.27;3.33;;;;;;;;;;5061691;28;20557;-77
2023/05/30 10:30:05;;;;;;;7.47;3.45;;;;;;;;;;5062201;28;20402;-77
2023/05/30 10:32:33;;;;;;;7.97;3.10;;;;;;;;;;5055710;28;20025;-77
2023/05/30 10:35:19;;;;;;;8.23;3.30;;;;;;;;;;5067950;28;20115;-77
2023/05/30 10:37:45;;;;;;;7.32;3.72;;;;;;;;;;5069159;28;20029;-77
2023/05/30 10:40:31;;;;;;;5.30;2.97;;;;;;;;;;5073374;28;20032;-78
2023/05/30 10:43:04;;;;;;;6.63;3.00;;;;;;;;;;5075855;28;20030;-77
2023/05/30 10:45:43;;;;;;;10.25;4.28;;;;;;;;;;5060380;28;20033;-77
2023/05/30 10:48:15;;;;;;;8.05;3.20;;;;;;;;;;5071051;28;20467;-77
2023/05/30 10:50:43;;;;;;;7.43;3.42;;;;;;;;;;5062172;28;20028;-78
2023/05/30 10:53:16;;;;;;;6.15;3.15;;;;;;;;;;5064858;28;20033;-77
2023/05/30 10:55:51;;;;;;;8.20;3.20;;;;;;;;;;5071927;28;20461;-78
2023/05/30 10:58:39;;;;;;;9.02;3.95;;;;;;;;;;5059051;28;20017;-77
2023/05/30 11:01:27;;;;;;;6.40;3.22;;;;;;;;;;5066115;28;20055;-77
2023/05/30 11:04:01;;;;;;;7.05;3.05;;;;;;;;;;5062986;28;20486;-75
2023/05/30 11:06:28;;;;;;;6.68;3.33;;;;;;;;;;5060719;28;20037;-77
2023/05/30 11:08:55;;;;;;;6.40;3.00;;;;;;;;;;5067102;28;20021;-77
2023/05/30 11:11:21;;;;;;;9.02;3.53;;;;;;;;;;5068605;28;20086;-78
2023/05/30 11:13:49;;;;;;;8.45;3.92;;;;;;;;;;5065847;28;20035;-76
2023/05/30 11:16:24;;;;;;;10.48;3.75;;;;;;;;;;5051039;28;20025;-77
2023/05/30 11:18:53;;;;;;;6.95;3.40;;;;;;;;;;5054086;28;20017;-78
2023/05/30 11:21:38;;;;;;;5.45;3.20;;;;;;;;;;5060501;28;20491;-77
2023/05/30 11:24:08;;;;;;;10.43;3.75;;;;;;;;;;5070232;28;20039;-77
2023/05/30 11:26:53;;;;;;;7.07;3.50;;;;;;;;;;5060120;28;20639;-77
2023/05/30 11:29:49;;;;;;;9.15;3.20;;;;;;;;;;5058344;28;20041;-78
2023/05/30 11:32:23;;;;;;;7.38;3.38;;;;;;;;;;5040627;28;20037;-77
2023/05/30 11:35:02;;;;;;;6.45;3.15;;;;;;;;;;5054839;28;20013;-77
2023/05/30 11:37:31;;;;;;;11.80;3.85;;;;;;;;;;5061884;28;20539;-78
2023/05/30 11:39:57;;;;;;;9.32;3.25;;;;;;;;;;5051860;28;20104;-78
2023/05/30 11:42:27;;;;;;;9.55;3.72;;;;;;;;;;5058702;28;20052;-77
2023/05/30 11:44:53;;;;;;;8.70;3.50;;;;;;;;;;5058735;28;20025;-78
2023/05/30 11:47:20;;;;;;;5.95;3.35;;;;;;;;;;5050225;28;20606;-79
2023/05/30 11:49:46;;;;;;;10.63;3.72;;;;;;;;;;5057120;28;20013;-77
2023/05/30 11:52:13;;;;;;;8.52;2.92;;;;;;;;;;5055321;28;20031;-77
2023/05/30 11:54:39;;;;;;;8.63;3.40;;;;;;;;;;5054342;28;20497;-77
2023/05/30 11:57:13;;;;;;;7.15;3.42;;;;;;;;;;5058282;28;20056;-78
2023/05/30 11:59:42;;;;;;;4.70;3.42;;;;;;;;;;5055951;28;20021;-79
2023/05/30 12:02:08;;;;;;;9.38;3.00;;;;;;;;;;5057861;28;20017;-78
2023/05/30 12:04:37;;;;;;;10.27;3.55;;;;;;;;;;5074909;28;20028;-78
2023/05/30 12:07:05;;;;;;;10.27;3.28;;;;;;;;;;5057586;28;20500;-78
2023/05/30 12:09:38;;;;;;;8.77;3.28;;;;;;;;;;5063942;28;20590;-79
2023/05/30 12:12:05;;;;;;;11.68;3.78;;;;;;;;;;5062753;28;20029;-78
2023/05/30 12:14:38;;;;;;;6.65;3.13;;;;;;;;;;5070392;28;20482;-79
2023/05/30 12:17:11;;;;;;;8.40;4.00;;;;;;;;;;5061196;28;20177;-79
2023/05/30 12:19:38;;;;;;;7.82;3.60;;;;;;;;;;5063792;28;20449;-79
2023/05/30 12:22:04;;;;;;;11.57;3.78;;;;;;;;;;5073550;28;20466;-78
2023/05/30 12:24:34;;;;;;;9.23;3.95;;;;;;;;;;5061664;28;20110;-78
2023/05/30 12:27:01;;;;;;;7.78;3.45;;;;;;;;;;5089231;28;20017;-77
2023/05/30 12:29:31;;;;;;;7.65;3.63;;;;;;;;;;5055615;28;20049;-77
2023/05/30 12:31:57;;;;;;;7.35;3.35;;;;;;;;;;5068695;28;20479;-78
2023/05/30 12:34:23;;;;;;;6.47;3.10;;;;;;;;;;5076866;28;20025;-78
2023/05/30 12:36:50;;;;;;;6.07;3.20;;;;;;;;;;5061338;28;20021;-77
2023/05/30 12:39:17;;;;;;;10.73;3.90;;;;;;;;;;5060799;28;20013;-77
2023/05/30 12:41:43;;;;;;;6.35;2.92;;;;;;;;;;5062735;28;20021;-78
2023/05/30 12:44:16;;;;;;;7.32;3.60;;;;;;;;;;5070696;28;20096;-78
2023/05/30 12:46:42;;;;;;;7.28;3.28;;;;;;;;;;5065653;28;20418;-78
2023/05/30 12:49:09;;;;;;;5.63;3.60;;;;;;;;;;5063264;28;20054;-78
2023/05/30 12:51:36;;;;;;;8.05;3.05;;;;;;;;;;5062215;28;20032;-77
2023/05/30 12:54:03;;;;;;;9.60;3.55;;;;;;;;;;5059537;28;20028;-77
2023/05/30 12:56:30;;;;;;;9.73;3.15;;;;;;;;;;5055076;28;20091;-78
2023/05/30 12:58:56;;;;;;;8.32;3.30;;;;;;;;;;5064115;28;20021;-78
2023/05/30 13:01:22;;;;;;;7.03;3.50;;;;;;;;;;5055635;28;20119;-78
2023/05/30 13:03:48;;;;;;;6.90;3.38;;;;;;;;;;5057750;28;20049;-79
2023/05/30 13:06:14;;;;;;;10.38;3.92;;;;;;;;;;5055773;28;20025;-78
2023/05/30 13:08:40;;;;;;;7.38;3.55;;;;;;;;;;5059504;28;20025;-78
2023/05/30 13:11:07;;;;;;;10.02;3.85;;;;;;;;;;5061126;28;20028;-78
2023/05/30 13:13:33;;;;;;;8.80;3.53;;;;;;;;;;5067375;28;20029;-77
2023/05/30 13:15:59;;;;;;;6.65;3.55;;;;;;;;;;5060852;28;20407;-77
2023/05/30 13:18:25;;;;;;;10.98;3.55;;;;;;;;;;5063129;28;20120;-78
2023/05/30 13:20:51;;;;;;;7.63;3.25;;;;;;;;;;5056397;28;20507;-77
2023/05/30 13:23:18;;;;;;;8.88;4.20;;;;;;;;;;5055310;28;20479;-77
2023/05/30 13:25:44;;;;;;;10.05;3.75;;;;;;;;;;5055526;28;20048;-77
2023/05/30 13:28:10;;;;;;;4.22;3.08;;;;;;;;;;5051062;28;20021;-78
2023/05/30 13:30:36;;;;;;;8.93;3.53;;;;;;;;;;5055724;28;20453;-78
2023/05/30 13:33:02;;;;;;;9.23;3.53;;;;;;;;;;5057992;28;20068;-78
2023/05/30 13:35:28;;;;;;;9.48;4.45;;;;;;;;;;5060564;28;20025;-78
2023/05/30 13:37:59;;;;;;;8.93;3.45;;;;;;;;;;5057202;28;20382;-77
2023/05/30 13:40:25;;;;;;;8.38;4.13;;;;;;;;;;5058395;28;20078;-79
2023/05/30 13:42:51;;;;;;;9.23;3.83;;;;;;;;;;5070303;28;20075;-78
2023/05/30 13:45:18;;;;;;;11.27;3.78;;;;;;;;;;5056040;28;20036;-78
2023/05/30 13:47:45;;;;;;;9.85;4.07;;;;;;;;;;5055283;28;20028;-79
2023/05/30 13:50:11;;;;;;;9.48;4.13;;;;;;;;;;5061773;28;20027;-77
2023/05/30 13:52:38;;;;;;;7.15;4.10;;;;;;;;;;5064627;28;20033;-78
2023/05/30 13:55:05;;;;;;;12.52;4.53;;;;;;;;;;5066350;28;20025;-78
2023/05/30 13:57:31;;;;;;;7.40;3.40;;;;;;;;;;5056270;28;20028;-78
2023/05/30 13:59:57;;;;;;;8.18;3.53;;;;;;;;;;5050736;28;20017;-79
2023/05/30 14:02:25;;;;;;;8.88;3.45;;;;;;;;;;5065617;28;20024;-78
2023/05/30 14:04:51;;;;;;;9.48;3.53;;;;;;;;;;5057956;28;20034;-78
2023/05/30 14:07:17;;;;;;;7.28;3.10;;;;;;;;;;5066265;28;20071;-78
2023/05/30 14:09:44;;;;;;;10.73;3.60;;;;;;;;;;5066128;28;20435;-78
2023/05/30 14:12:10;;;;;;;11.05;4.10;;;;;;;;;;5051201;28;20513;-79
2023/05/30 14:14:36;;;;;;;7.78;4.10;;;;;;;;;;5059567;28;20025;-77
2023/05/30 14:17:03;;;;;;;8.70;3.80;;;;;;;;;;5052368;28;20057;-78
2023/05/30 14:19:30;;;;;;;6.53;3.20;;;;;;;;;;5058780;28;20150;-78
2023/05/30 14:21:56;;;;;;;6.45;3.45;;;;;;;;;;5061182;28;20101;-78
2023/05/30 14:24:22;;;;;;;7.93;3.60;;;;;;;;;;5064196;28;20052;-78
2023/05/30 14:26:48;;;;;;;5.93;3.80;;;;;;;;;;5051410;28;20047;-78
2023/05/30 14:29:14;;;;;;;9.48;3.97;;;;;;;;;;5053580;28;20017;-77
2023/05/30 14:31:40;;;;;;;6.97;3.65;;;;;;;;;;5060110;28;20024;-78
2023/05/30 14:34:07;;;;;;;8.63;4.38;;;;;;;;;;5066762;28;20028;-78
2023/05/30 14:36:33;;;;;;;8.25;3.42;;;;;;;;;;5071058;28;20056;-78
2023/05/30 14:38:59;;;;;;;9.38;3.25;;;;;;;;;;5058207;28;20052;-79
2023/05/30 14:41:26;;;;;;;10.05;3.80;;;;;;;;;;5054936;28;20029;-79